sensor_id;sensor_type;location;lat;lon;timestamp;temperature;humidity
47805;DHT22;33568;45.286;9.900;2023-10-08T00:04:24;21.20;95.70
47805;DHT22;33568;45.286;9.900;2023-10-08T00:06:50;21.20;95.90
47805;DHT22;33568;45.286;9.900;2023-10-08T00:09:18;21.20;96.00
47805;DHT22;33568;45.286;9.900;2023-10-08T00:14:50;21.20;96.10
47805;DHT22;33568;45.286;9.900;2023-10-08T00:17:38;21.20;96.00
47805;DHT22;33568;45.286;9.900;2023-10-08T00:20:05;21.30;96.00
47805;DHT22;33568;45.286;9.900;2023-10-08T00:22:31;21.30;96.00
47805;DHT22;33568;45.286;9.900;2023-10-08T00:25:02;21.30;96.00
47805;DHT22;33568;45.286;9.900;2023-10-08T00:27:49;21.40;96.20
47805;DHT22;33568;45.286;9.900;2023-10-08T00:30:17;21.60;96.10
47805;DHT22;33568;45.286;9.900;2023-10-08T00:32:46;21.70;95.90
47805;DHT22;33568;45.286;9.900;2023-10-08T00:35:13;21.70;95.70
47805;DHT22;33568;45.286;9.900;2023-10-08T00:37:40;21.70;95.70
47805;DHT22;33568;45.286;9.900;2023-10-08T00:40:35;21.70;95.60
47805;DHT22;33568;45.286;9.900;2023-10-08T00:43:01;21.60;95.60
47805;DHT22;33568;45.286;9.900;2023-10-08T00:45:30;21.50;95.60
47805;DHT22;33568;45.286;9.900;2023-10-08T00:47:56;21.50;95.70
47805;DHT22;33568;45.286;9.900;2023-10-08T00:50:23;21.40;95.70
47805;DHT22;33568;45.286;9.900;2023-10-08T00:52:57;21.40;95.80
47805;DHT22;33568;45.286;9.900;2023-10-08T00:56:03;21.40;95.90
47805;DHT22;33568;45.286;9.900;2023-10-08T00:58:37;21.30;95.80
47805;DHT22;33568;45.286;9.900;2023-10-08T01:04:09;21.20;96.10
47805;DHT22;33568;45.286;9.900;2023-10-08T01:12:55;21.10;96.20
47805;DHT22;33568;45.286;9.900;2023-10-08T01:16:18;21.00;96.10
47805;DHT22;33568;45.286;9.900;2023-10-08T01:18:44;20.90;96.10
47805;DHT22;33568;45.286;9.900;2023-10-08T01:21:17;20.90;96.60
47805;DHT22;33568;45.286;9.900;2023-10-08T01:24:01;20.90;96.40
47805;DHT22;33568;45.286;9.900;2023-10-08T01:26:30;20.90;96.40
47805;DHT22;33568;45.286;9.900;2023-10-08T01:29:17;20.90;96.30
47805;DHT22;33568;45.286;9.900;2023-10-08T01:31:47;20.80;96.20
47805;DHT22;33568;45.286;9.900;2023-10-08T01:34:32;20.80;96.30
47805;DHT22;33568;45.286;9.900;2023-10-08T01:37:21;20.90;96.20
47805;DHT22;33568;45.286;9.900;2023-10-08T01:40:06;21.00;96.40
47805;DHT22;33568;45.286;9.900;2023-10-08T01:43:10;21.20;96.00
47805;DHT22;33568;45.286;9.900;2023-10-08T01:45:58;21.20;96.00
47805;DHT22;33568;45.286;9.900;2023-10-08T01:48:43;21.20;95.90
47805;DHT22;33568;45.286;9.900;2023-10-08T01:51:11;21.10;95.80
47805;DHT22;33568;45.286;9.900;2023-10-08T01:53:53;21.00;95.80
47805;DHT22;33568;45.286;9.900;2023-10-08T01:59:10;21.00;96.10
47805;DHT22;33568;45.286;9.900;2023-10-08T02:01:37;20.90;96.40
47805;DHT22;33568;45.286;9.900;2023-10-08T02:04:05;21.00;96.20
47805;DHT22;33568;45.286;9.900;2023-10-08T02:06:35;21.10;96.10
47805;DHT22;33568;45.286;9.900;2023-10-08T02:09:21;21.30;96.20
47805;DHT22;33568;45.286;9.900;2023-10-08T02:11:53;21.40;95.80
47805;DHT22;33568;45.286;9.900;2023-10-08T02:14:20;21.50;95.80
47805;DHT22;33568;45.286;9.900;2023-10-08T02:16:52;21.50;95.40
47805;DHT22;33568;45.286;9.900;2023-10-08T02:19:41;21.40;95.20
47805;DHT22;33568;45.286;9.900;2023-10-08T02:22:07;21.20;95.20
47805;DHT22;33568;45.286;9.900;2023-10-08T02:24:36;21.00;95.20
47805;DHT22;33568;45.286;9.900;2023-10-08T02:27:22;20.90;95.40
47805;DHT22;33568;45.286;9.900;2023-10-08T02:30:07;20.80;95.70
47805;DHT22;33568;45.286;9.900;2023-10-08T02:32:36;20.70;95.90
47805;DHT22;33568;45.286;9.900;2023-10-08T02:35:04;20.70;96.20
47805;DHT22;33568;45.286;9.900;2023-10-08T02:40:54;20.80;96.20
47805;DHT22;33568;45.286;9.900;2023-10-08T02:43:23;20.80;96.20
47805;DHT22;33568;45.286;9.900;2023-10-08T02:45:49;20.70;96.10
47805;DHT22;33568;45.286;9.900;2023-10-08T02:48:16;20.70;96.20
47805;DHT22;33568;45.286;9.900;2023-10-08T02:51:20;20.70;96.60
47805;DHT22;33568;45.286;9.900;2023-10-08T02:53:47;20.60;96.30
47805;DHT22;33568;45.286;9.900;2023-10-08T02:56:32;20.60;96.40
47805;DHT22;33568;45.286;9.900;2023-10-08T02:59:18;20.60;96.40
47805;DHT22;33568;45.286;9.900;2023-10-08T03:01:48;20.60;96.50
47805;DHT22;33568;45.286;9.900;2023-10-08T03:04:23;20.60;96.50
47805;DHT22;33568;45.286;9.900;2023-10-08T03:06:50;20.60;96.70
47805;DHT22;33568;45.286;9.900;2023-10-08T03:09:18;20.70;96.80
47805;DHT22;33568;45.286;9.900;2023-10-08T03:12:09;20.70;96.70
47805;DHT22;33568;45.286;9.900;2023-10-08T03:14:36;20.90;96.80
47805;DHT22;33568;45.286;9.900;2023-10-08T03:17:16;21.00;96.60
47805;DHT22;33568;45.286;9.900;2023-10-08T03:20:05;20.90;96.40
47805;DHT22;33568;45.286;9.900;2023-10-08T03:23:11;21.00;96.40
47805;DHT22;33568;45.286;9.900;2023-10-08T03:25:57;20.90;96.40
47805;DHT22;33568;45.286;9.900;2023-10-08T03:28:44;20.70;96.30
47805;DHT22;33568;45.286;9.900;2023-10-08T03:31:10;20.70;96.30
47805;DHT22;33568;45.286;9.900;2023-10-08T03:33:43;20.60;96.60
47805;DHT22;33568;45.286;9.900;2023-10-08T03:36:15;20.50;96.70
47805;DHT22;33568;45.286;9.900;2023-10-08T03:38:47;20.40;96.80
47805;DHT22;33568;45.286;9.900;2023-10-08T03:41:36;20.50;97.00
47805;DHT22;33568;45.286;9.900;2023-10-08T03:44:06;20.40;97.00
47805;DHT22;33568;45.286;9.900;2023-10-08T03:46:40;20.50;97.20
47805;DHT22;33568;45.286;9.900;2023-10-08T03:49:09;20.70;97.20
47805;DHT22;33568;45.286;9.900;2023-10-08T03:52:03;20.80;96.80
47805;DHT22;33568;45.286;9.900;2023-10-08T03:54:51;20.80;96.70
47805;DHT22;33568;45.286;9.900;2023-10-08T03:57:47;20.80;96.70
47805;DHT22;33568;45.286;9.900;2023-10-08T04:00:23;20.80;96.60
47805;DHT22;33568;45.286;9.900;2023-10-08T04:02:58;20.80;96.70
47805;DHT22;33568;45.286;9.900;2023-10-08T04:06:02;20.80;96.70
47805;DHT22;33568;45.286;9.900;2023-10-08T04:08:55;20.60;96.70
47805;DHT22;33568;45.286;9.900;2023-10-08T04:11:40;20.60;96.90
47805;DHT22;33568;45.286;9.900;2023-10-08T04:14:38;20.60;96.90
47805;DHT22;33568;45.286;9.900;2023-10-08T04:17:05;20.70;97.10
47805;DHT22;33568;45.286;9.900;2023-10-08T04:19:35;20.70;97.10
47805;DHT22;33568;45.286;9.900;2023-10-08T04:22:01;20.60;97.00
47805;DHT22;33568;45.286;9.900;2023-10-08T04:24:29;20.60;97.20
47805;DHT22;33568;45.286;9.900;2023-10-08T04:27:00;20.80;97.30
47805;DHT22;33568;45.286;9.900;2023-10-08T04:29:32;20.80;97.00
47805;DHT22;33568;45.286;9.900;2023-10-08T04:32:16;20.80;97.10
47805;DHT22;33568;45.286;9.900;2023-10-08T04:37:59;20.90;97.10
47805;DHT22;33568;45.286;9.900;2023-10-08T04:40:25;20.90;97.00
47805;DHT22;33568;45.286;9.900;2023-10-08T04:42:52;21.00;96.90
47805;DHT22;33568;45.286;9.900;2023-10-08T04:45:20;21.00;96.70
47805;DHT22;33568;45.286;9.900;2023-10-08T04:48:05;21.00;96.70
47805;DHT22;33568;45.286;9.900;2023-10-08T04:50:36;21.00;96.70
47805;DHT22;33568;45.286;9.900;2023-10-08T04:53:04;21.00;96.70
47805;DHT22;33568;45.286;9.900;2023-10-08T04:55:35;21.00;96.60
47805;DHT22;33568;45.286;9.900;2023-10-08T04:58:01;20.90;96.70
47805;DHT22;33568;45.286;9.900;2023-10-08T05:00:38;21.00;96.70
47805;DHT22;33568;45.286;9.900;2023-10-08T05:03:10;21.10;96.60
47805;DHT22;33568;45.286;9.900;2023-10-08T05:05:40;21.00;96.60
47805;DHT22;33568;45.286;9.900;2023-10-08T05:08:35;20.90;96.80
47805;DHT22;33568;45.286;9.900;2023-10-08T05:11:32;20.80;96.70
47805;DHT22;33568;45.286;9.900;2023-10-08T05:14:21;20.80;96.70
47805;DHT22;33568;45.286;9.900;2023-10-08T05:17:18;20.60;96.90
47805;DHT22;33568;45.286;9.900;2023-10-08T05:19:45;20.50;97.10
47805;DHT22;33568;45.286;9.900;2023-10-08T05:22:16;20.40;97.50
47805;DHT22;33568;45.286;9.900;2023-10-08T05:24:56;20.40;97.40
47805;DHT22;33568;45.286;9.900;2023-10-08T05:27:43;20.30;97.50
47805;DHT22;33568;45.286;9.900;2023-10-08T05:30:17;20.30;97.70
47805;DHT22;33568;45.286;9.900;2023-10-08T05:33:22;20.20;97.60
47805;DHT22;33568;45.286;9.900;2023-10-08T05:36:10;20.30;97.80
47805;DHT22;33568;45.286;9.900;2023-10-08T05:38:44;20.40;97.90
47805;DHT22;33568;45.286;9.900;2023-10-08T05:41:27;20.60;97.60
47805;DHT22;33568;45.286;9.900;2023-10-08T05:43:54;20.60;97.60
47805;DHT22;33568;45.286;9.900;2023-10-08T05:46:40;20.60;97.60
47805;DHT22;33568;45.286;9.900;2023-10-08T05:49:15;20.60;97.60
47805;DHT22;33568;45.286;9.900;2023-10-08T05:51:52;20.80;97.50
47805;DHT22;33568;45.286;9.900;2023-10-08T05:54:37;20.80;97.30
47805;DHT22;33568;45.286;9.900;2023-10-08T05:57:23;20.70;97.30
47805;DHT22;33568;45.286;9.900;2023-10-08T06:00:23;20.60;97.50
47805;DHT22;33568;45.286;9.900;2023-10-08T06:03:13;20.60;97.40
47805;DHT22;33568;45.286;9.900;2023-10-08T06:06:03;20.60;97.50
47805;DHT22;33568;45.286;9.900;2023-10-08T06:11:46;20.80;97.20
47805;DHT22;33568;45.286;9.900;2023-10-08T06:14:31;20.80;96.90
47805;DHT22;33568;45.286;9.900;2023-10-08T06:17:16;20.80;96.90
47805;DHT22;33568;45.286;9.900;2023-10-08T06:23:18;20.70;96.80
47805;DHT22;33568;45.286;9.900;2023-10-08T06:26:04;20.70;96.80
47805;DHT22;33568;45.286;9.900;2023-10-08T06:28:41;20.60;96.90
47805;DHT22;33568;45.286;9.900;2023-10-08T06:31:08;20.60;97.20
47805;DHT22;33568;45.286;9.900;2023-10-08T06:33:44;20.70;97.20
47805;DHT22;33568;45.286;9.900;2023-10-08T06:36:11;20.70;97.00
47805;DHT22;33568;45.286;9.900;2023-10-08T06:38:45;20.70;97.00
47805;DHT22;33568;45.286;9.900;2023-10-08T06:41:14;20.70;97.20
47805;DHT22;33568;45.286;9.900;2023-10-08T06:43:42;20.70;97.30
47805;DHT22;33568;45.286;9.900;2023-10-08T06:46:47;20.70;97.10
47805;DHT22;33568;45.286;9.900;2023-10-08T06:49:14;20.60;97.30
47805;DHT22;33568;45.286;9.900;2023-10-08T06:52:01;20.60;97.40
47805;DHT22;33568;45.286;9.900;2023-10-08T06:54:46;20.80;97.30
47805;DHT22;33568;45.286;9.900;2023-10-08T06:57:31;20.70;97.40
47805;DHT22;33568;45.286;9.900;2023-10-08T07:03:03;20.80;97.40
47805;DHT22;33568;45.286;9.900;2023-10-08T07:05:29;20.90;97.40
47805;DHT22;33568;45.286;9.900;2023-10-08T07:08:03;21.10;97.30
47805;DHT22;33568;45.286;9.900;2023-10-08T07:10:33;21.20;97.10
47805;DHT22;33568;45.286;9.900;2023-10-08T07:13:05;21.40;96.90
47805;DHT22;33568;45.286;9.900;2023-10-08T07:21:29;21.40;96.70
47805;DHT22;33568;45.286;9.900;2023-10-08T07:24:05;21.40;96.70
47805;DHT22;33568;45.286;9.900;2023-10-08T07:26:36;21.30;97.00
47805;DHT22;33568;45.286;9.900;2023-10-08T07:29:04;21.20;97.10
47805;DHT22;33568;45.286;9.900;2023-10-08T07:31:53;21.20;97.20
47805;DHT22;33568;45.286;9.900;2023-10-08T07:34:20;21.20;97.30
47805;DHT22;33568;45.286;9.900;2023-10-08T07:36:49;21.20;97.30
47805;DHT22;33568;45.286;9.900;2023-10-08T07:39:17;21.20;97.30
47805;DHT22;33568;45.286;9.900;2023-10-08T07:42:04;21.20;97.40
47805;DHT22;33568;45.286;9.900;2023-10-08T07:48:12;21.30;97.30
47805;DHT22;33568;45.286;9.900;2023-10-08T07:50:44;21.40;97.10
47805;DHT22;33568;45.286;9.900;2023-10-08T07:53:35;21.50;97.00
47805;DHT22;33568;45.286;9.900;2023-10-08T07:56:05;21.60;96.50
47805;DHT22;33568;45.286;9.900;2023-10-08T08:01:24;21.80;96.30
47805;DHT22;33568;45.286;9.900;2023-10-08T08:03:53;21.80;96.10
47805;DHT22;33568;45.286;9.900;2023-10-08T08:06:38;21.90;96.20
47805;DHT22;33568;45.286;9.900;2023-10-08T08:09:23;21.90;96.10
47805;DHT22;33568;45.286;9.900;2023-10-08T08:14:37;22.10;95.60
47805;DHT22;33568;45.286;9.900;2023-10-08T08:17:08;22.20;95.40
47805;DHT22;33568;45.286;9.900;2023-10-08T08:19:44;22.20;95.40
47805;DHT22;33568;45.286;9.900;2023-10-08T08:22:14;22.30;95.10
47805;DHT22;33568;45.286;9.900;2023-10-08T08:24:57;22.30;94.90
47805;DHT22;33568;45.286;9.900;2023-10-08T08:27:43;22.40;94.80
47805;DHT22;33568;45.286;9.900;2023-10-08T08:30:15;22.50;94.60
47805;DHT22;33568;45.286;9.900;2023-10-08T08:32:59;22.60;94.40
47805;DHT22;33568;45.286;9.900;2023-10-08T08:35:47;22.90;94.20
47805;DHT22;33568;45.286;9.900;2023-10-08T08:38:13;23.10;93.10
47805;DHT22;33568;45.286;9.900;2023-10-08T08:40:40;23.40;93.20
47805;DHT22;33568;45.286;9.900;2023-10-08T08:43:25;23.60;92.60
47805;DHT22;33568;45.286;9.900;2023-10-08T08:46:11;23.90;91.90
47805;DHT22;33568;45.286;9.900;2023-10-08T08:48:43;24.00;90.70
47805;DHT22;33568;45.286;9.900;2023-10-08T08:51:12;24.30;90.80
47805;DHT22;33568;45.286;9.900;2023-10-08T08:53:39;24.40;90.30
47805;DHT22;33568;45.286;9.900;2023-10-08T08:56:08;24.60;89.80
47805;DHT22;33568;45.286;9.900;2023-10-08T08:58:39;24.70;89.10
47805;DHT22;33568;45.286;9.900;2023-10-08T09:01:07;24.80;87.70
47805;DHT22;33568;45.286;9.900;2023-10-08T09:03:39;24.90;86.70
47805;DHT22;33568;45.286;9.900;2023-10-08T09:06:05;25.10;86.00
47805;DHT22;33568;45.286;9.900;2023-10-08T09:08:50;25.40;85.00
47805;DHT22;33568;45.286;9.900;2023-10-08T09:11:21;25.40;82.00
47805;DHT22;33568;45.286;9.900;2023-10-08T09:13:48;25.60;82.40
47805;DHT22;33568;45.286;9.900;2023-10-08T09:16:16;25.70;81.10
47805;DHT22;33568;45.286;9.900;2023-10-08T09:18:44;25.90;80.20
47805;DHT22;33568;45.286;9.900;2023-10-08T09:24:22;26.00;77.00
47805;DHT22;33568;45.286;9.900;2023-10-08T09:27:09;26.20;77.30
47805;DHT22;33568;45.286;9.900;2023-10-08T09:29:41;26.30;76.20
47805;DHT22;33568;45.286;9.900;2023-10-08T09:34:57;26.60;74.90
47805;DHT22;33568;45.286;9.900;2023-10-08T09:37:24;26.70;74.70
47805;DHT22;33568;45.286;9.900;2023-10-08T09:42:38;27.00;73.50
47805;DHT22;33568;45.286;9.900;2023-10-08T09:45:05;27.00;73.30
47805;DHT22;33568;45.286;9.900;2023-10-08T09:47:54;27.10;72.90
47805;DHT22;33568;45.286;9.900;2023-10-08T09:50:42;27.10;72.30
47805;DHT22;33568;45.286;9.900;2023-10-08T09:53:12;27.20;72.40
47805;DHT22;33568;45.286;9.900;2023-10-08T09:55:56;27.30;72.40
47805;DHT22;33568;45.286;9.900;2023-10-08T09:58:24;27.40;71.10
47805;DHT22;33568;45.286;9.900;2023-10-08T10:00:53;27.40;71.20
47805;DHT22;33568;45.286;9.900;2023-10-08T10:03:21;27.40;71.00
47805;DHT22;33568;45.286;9.900;2023-10-08T10:09:20;27.80;71.00
47805;DHT22;33568;45.286;9.900;2023-10-08T10:12:07;28.10;70.20
47805;DHT22;33568;45.286;9.900;2023-10-08T10:14:47;28.40;70.20
47805;DHT22;33568;45.286;9.900;2023-10-08T10:22:46;28.60;68.60
47805;DHT22;33568;45.286;9.900;2023-10-08T10:25:34;28.70;68.20
47805;DHT22;33568;45.286;9.900;2023-10-08T10:28:22;28.80;67.40
47805;DHT22;33568;45.286;9.900;2023-10-08T10:30:50;28.90;66.20
47805;DHT22;33568;45.286;9.900;2023-10-08T10:33:36;29.00;66.50
47805;DHT22;33568;45.286;9.900;2023-10-08T10:36:06;29.30;66.20
47805;DHT22;33568;45.286;9.900;2023-10-08T10:38:35;29.40;65.70
47805;DHT22;33568;45.286;9.900;2023-10-08T10:41:03;29.60;65.30
47805;DHT22;33568;45.286;9.900;2023-10-08T10:43:35;29.60;64.80
47805;DHT22;33568;45.286;9.900;2023-10-08T10:48:57;29.80;64.40
47805;DHT22;33568;45.286;9.900;2023-10-08T10:51:45;29.90;64.50
47805;DHT22;33568;45.286;9.900;2023-10-08T10:54:13;30.20;64.10
47805;DHT22;33568;45.286;9.900;2023-10-08T10:57:06;30.20;63.60
47805;DHT22;33568;45.286;9.900;2023-10-08T10:59:42;30.20;63.30
47805;DHT22;33568;45.286;9.900;2023-10-08T11:02:19;30.30;63.20
47805;DHT22;33568;45.286;9.900;2023-10-08T11:04:57;30.40;62.30
47805;DHT22;33568;45.286;9.900;2023-10-08T11:07:42;30.80;63.10
47805;DHT22;33568;45.286;9.900;2023-10-08T11:10:31;30.90;62.20
47805;DHT22;33568;45.286;9.900;2023-10-08T11:13:20;30.90;61.90
47805;DHT22;33568;45.286;9.900;2023-10-08T11:18:40;31.00;61.50
47805;DHT22;33568;45.286;9.900;2023-10-08T11:21:26;31.10;61.10
47805;DHT22;33568;45.286;9.900;2023-10-08T11:23:57;31.00;61.40
47805;DHT22;33568;45.286;9.900;2023-10-08T11:26:44;31.10;60.90
47805;DHT22;33568;45.286;9.900;2023-10-08T11:29:30;31.50;60.30
47805;DHT22;33568;45.286;9.900;2023-10-08T11:31:56;31.50;59.80
47805;DHT22;33568;45.286;9.900;2023-10-08T11:34:41;31.50;59.60
47805;DHT22;33568;45.286;9.900;2023-10-08T11:37:08;31.50;59.50
47805;DHT22;33568;45.286;9.900;2023-10-08T11:40:04;31.80;59.20
47805;DHT22;33568;45.286;9.900;2023-10-08T11:43:01;32.10;59.10
47805;DHT22;33568;45.286;9.900;2023-10-08T11:45:29;32.10;58.50
47805;DHT22;33568;45.286;9.900;2023-10-08T11:48:15;32.10;58.50
47805;DHT22;33568;45.286;9.900;2023-10-08T11:50:48;32.20;58.40
47805;DHT22;33568;45.286;9.900;2023-10-08T11:53:16;32.40;57.90
47805;DHT22;33568;45.286;9.900;2023-10-08T11:56:03;32.40;57.50
47805;DHT22;33568;45.286;9.900;2023-10-08T11:58:42;32.40;57.60
47805;DHT22;33568;45.286;9.900;2023-10-08T12:01:45;32.50;57.40
47805;DHT22;33568;45.286;9.900;2023-10-08T12:04:12;32.80;56.30
47805;DHT22;33568;45.286;9.900;2023-10-08T12:06:42;32.90;56.40
47805;DHT22;33568;45.286;9.900;2023-10-08T12:09:32;33.10;56.00
47805;DHT22;33568;45.286;9.900;2023-10-08T12:12:04;33.10;54.20
47805;DHT22;33568;45.286;9.900;2023-10-08T12:14:36;33.40;55.10
47805;DHT22;33568;45.286;9.900;2023-10-08T12:17:04;33.40;54.70
47805;DHT22;33568;45.286;9.900;2023-10-08T12:19:37;33.20;54.10
47805;DHT22;33568;45.286;9.900;2023-10-08T12:22:22;33.00;53.90
47805;DHT22;33568;45.286;9.900;2023-10-08T12:25:07;32.90;53.50
47805;DHT22;33568;45.286;9.900;2023-10-08T12:27:33;32.70;53.40
47805;DHT22;33568;45.286;9.900;2023-10-08T12:30:00;32.70;53.30
47805;DHT22;33568;45.286;9.900;2023-10-08T12:32:27;32.80;53.20
47805;DHT22;33568;45.286;9.900;2023-10-08T12:34:53;32.40;53.20
47805;DHT22;33568;45.286;9.900;2023-10-08T12:37:20;32.00;53.50
47805;DHT22;33568;45.286;9.900;2023-10-08T12:40:06;31.60;53.80
47805;DHT22;33568;45.286;9.900;2023-10-08T12:42:38;31.30;53.00
47805;DHT22;33568;45.286;9.900;2023-10-08T12:45:05;31.10;54.60
47805;DHT22;33568;45.286;9.900;2023-10-08T12:47:57;31.00;54.70
47805;DHT22;33568;45.286;9.900;2023-10-08T12:50:25;30.80;55.00
47805;DHT22;33568;45.286;9.900;2023-10-08T12:56:26;30.60;54.90
47805;DHT22;33568;45.286;9.900;2023-10-08T12:59:11;30.60;55.60
47805;DHT22;33568;45.286;9.900;2023-10-08T13:01:47;30.50;55.50
47805;DHT22;33568;45.286;9.900;2023-10-08T13:04:18;30.50;55.60
47805;DHT22;33568;45.286;9.900;2023-10-08T13:07:03;30.50;55.70
47805;DHT22;33568;45.286;9.900;2023-10-08T13:09:30;30.60;55.70
47805;DHT22;33568;45.286;9.900;2023-10-08T13:11:57;30.60;55.50
47805;DHT22;33568;45.286;9.900;2023-10-08T13:14:25;30.50;55.40
47805;DHT22;33568;45.286;9.900;2023-10-08T13:17:29;30.50;55.50
47805;DHT22;33568;45.286;9.900;2023-10-08T13:19:55;30.50;55.60
47805;DHT22;33568;45.286;9.900;2023-10-08T13:22:40;30.60;55.80
47805;DHT22;33568;45.286;9.900;2023-10-08T13:25:12;30.70;55.20
47805;DHT22;33568;45.286;9.900;2023-10-08T13:27:39;30.70;55.50
47805;DHT22;33568;45.286;9.900;2023-10-08T13:30:07;30.70;55.40
47805;DHT22;33568;45.286;9.900;2023-10-08T13:32:53;30.70;55.40
47805;DHT22;33568;45.286;9.900;2023-10-08T13:35:20;30.80;54.50
47805;DHT22;33568;45.286;9.900;2023-10-08T13:37:46;30.90;55.10
47805;DHT22;33568;45.286;9.900;2023-10-08T13:40:14;30.90;54.40
47805;DHT22;33568;45.286;9.900;2023-10-08T13:42:42;30.90;53.80
47805;DHT22;33568;45.286;9.900;2023-10-08T13:45:09;30.90;53.30
47805;DHT22;33568;45.286;9.900;2023-10-08T13:47:54;30.90;53.10
47805;DHT22;33568;45.286;9.900;2023-10-08T13:50:41;30.90;52.80
47805;DHT22;33568;45.286;9.900;2023-10-08T13:53:08;30.90;51.10
47805;DHT22;33568;45.286;9.900;2023-10-08T13:55:34;30.90;52.30
47805;DHT22;33568;45.286;9.900;2023-10-08T13:58:19;31.00;50.90
47805;DHT22;33568;45.286;9.900;2023-10-08T14:01:04;31.10;49.10
47805;DHT22;33568;45.286;9.900;2023-10-08T14:04:22;31.10;50.30
47805;DHT22;33568;45.286;9.900;2023-10-08T14:07:33;31.20;50.10
47805;DHT22;33568;45.286;9.900;2023-10-08T14:10:02;31.20;49.70
47805;DHT22;33568;45.286;9.900;2023-10-08T14:12:52;31.20;49.50
47805;DHT22;33568;45.286;9.900;2023-10-08T14:15:56;31.30;49.40
47805;DHT22;33568;45.286;9.900;2023-10-08T14:18:23;31.20;48.00
47805;DHT22;33568;45.286;9.900;2023-10-08T14:24:48;31.30;47.80
47805;DHT22;33568;45.286;9.900;2023-10-08T14:27:43;31.30;48.70
47805;DHT22;33568;45.286;9.900;2023-10-08T14:30:18;31.30;47.30
47805;DHT22;33568;45.286;9.900;2023-10-08T14:32:47;31.40;48.50
47805;DHT22;33568;45.286;9.900;2023-10-08T14:35:14;31.40;48.50
47805;DHT22;33568;45.286;9.900;2023-10-08T14:38:00;31.40;48.30
47805;DHT22;33568;45.286;9.900;2023-10-08T14:40:46;31.30;48.20
47805;DHT22;33568;45.286;9.900;2023-10-08T14:43:31;31.30;48.30
47805;DHT22;33568;45.286;9.900;2023-10-08T14:46:03;31.30;48.50
47805;DHT22;33568;45.286;9.900;2023-10-08T14:48:33;31.30;48.60
47805;DHT22;33568;45.286;9.900;2023-10-08T14:51:03;31.30;48.80
47805;DHT22;33568;45.286;9.900;2023-10-08T14:53:33;31.20;48.50
47805;DHT22;33568;45.286;9.900;2023-10-08T14:56:04;31.20;48.50
47805;DHT22;33568;45.286;9.900;2023-10-08T14:58:31;31.20;48.60
47805;DHT22;33568;45.286;9.900;2023-10-08T15:00:58;31.20;48.80
47805;DHT22;33568;45.286;9.900;2023-10-08T15:06:31;31.20;49.00
47805;DHT22;33568;45.286;9.900;2023-10-08T15:12:01;31.20;49.30
47805;DHT22;33568;45.286;9.900;2023-10-08T15:14:28;31.10;49.20
47805;DHT22;33568;45.286;9.900;2023-10-08T15:17:13;31.10;49.20
47805;DHT22;33568;45.286;9.900;2023-10-08T15:19:39;31.00;49.00
47805;DHT22;33568;45.286;9.900;2023-10-08T15:22:24;31.00;48.70
47805;DHT22;33568;45.286;9.900;2023-10-08T15:25:15;30.90;48.60
47805;DHT22;33568;45.286;9.900;2023-10-08T15:27:46;30.90;48.50
47805;DHT22;33568;45.286;9.900;2023-10-08T15:30:19;30.80;48.80
47805;DHT22;33568;45.286;9.900;2023-10-08T15:32:48;30.80;48.60
47805;DHT22;33568;45.286;9.900;2023-10-08T15:35:17;30.80;48.90
47805;DHT22;33568;45.286;9.900;2023-10-08T15:37:49;30.70;49.00
47805;DHT22;33568;45.286;9.900;2023-10-08T15:40:34;30.70;49.30
47805;DHT22;33568;45.286;9.900;2023-10-08T15:43:01;30.60;49.40
47805;DHT22;33568;45.286;9.900;2023-10-08T15:45:27;30.60;49.70
47805;DHT22;33568;45.286;9.900;2023-10-08T15:47:55;30.60;49.80
47805;DHT22;33568;45.286;9.900;2023-10-08T15:50:40;30.60;49.90
47805;DHT22;33568;45.286;9.900;2023-10-08T15:53:07;30.50;49.90
47805;DHT22;33568;45.286;9.900;2023-10-08T15:55:33;30.40;49.90
47805;DHT22;33568;45.286;9.900;2023-10-08T15:58:00;30.40;50.00
47805;DHT22;33568;45.286;9.900;2023-10-08T16:00:26;30.30;50.20
47805;DHT22;33568;45.286;9.900;2023-10-08T16:02:53;30.30;50.40
47805;DHT22;33568;45.286;9.900;2023-10-08T16:05:20;30.30;50.60
47805;DHT22;33568;45.286;9.900;2023-10-08T16:08:23;30.20;50.80
47805;DHT22;33568;45.286;9.900;2023-10-08T16:11:08;30.00;50.60
47805;DHT22;33568;45.286;9.900;2023-10-08T16:13:34;29.90;51.30
47805;DHT22;33568;45.286;9.900;2023-10-08T16:16:01;29.90;51.60
47805;DHT22;33568;45.286;9.900;2023-10-08T16:18:45;29.90;52.00
47805;DHT22;33568;45.286;9.900;2023-10-08T16:21:49;29.80;52.20
47805;DHT22;33568;45.286;9.900;2023-10-08T16:24:17;29.70;52.50
47805;DHT22;33568;45.286;9.900;2023-10-08T16:26:44;29.60;52.80
47805;DHT22;33568;45.286;9.900;2023-10-08T16:29:10;29.50;53.00
47805;DHT22;33568;45.286;9.900;2023-10-08T16:31:39;29.40;53.90
47805;DHT22;33568;45.286;9.900;2023-10-08T16:36:55;29.20;53.90
47805;DHT22;33568;45.286;9.900;2023-10-08T16:39:21;29.10;54.10
47805;DHT22;33568;45.286;9.900;2023-10-08T16:48:16;28.80;55.50
47805;DHT22;33568;45.286;9.900;2023-10-08T16:50:43;28.70;55.70
47805;DHT22;33568;45.286;9.900;2023-10-08T16:58:58;28.30;56.80
47805;DHT22;33568;45.286;9.900;2023-10-08T17:01:25;28.20;57.30
47805;DHT22;33568;45.286;9.900;2023-10-08T17:03:51;28.10;57.90
47805;DHT22;33568;45.286;9.900;2023-10-08T17:09:03;27.90;58.50
47805;DHT22;33568;45.286;9.900;2023-10-08T17:11:58;27.70;58.70
47805;DHT22;33568;45.286;9.900;2023-10-08T17:14:24;27.60;59.10
47805;DHT22;33568;45.286;9.900;2023-10-08T17:16:51;27.60;59.50
47805;DHT22;33568;45.286;9.900;2023-10-08T17:19:36;27.40;59.80
47805;DHT22;33568;45.286;9.900;2023-10-08T17:22:02;27.40;60.20
47805;DHT22;33568;45.286;9.900;2023-10-08T17:24:49;27.30;60.40
47805;DHT22;33568;45.286;9.900;2023-10-08T17:27:34;27.30;60.90
47805;DHT22;33568;45.286;9.900;2023-10-08T17:30:02;27.20;61.00
47805;DHT22;33568;45.286;9.900;2023-10-08T17:35:50;27.00;61.50
47805;DHT22;33568;45.286;9.900;2023-10-08T17:38:16;26.90;62.00
47805;DHT22;33568;45.286;9.900;2023-10-08T17:40:43;26.80;62.40
47805;DHT22;33568;45.286;9.900;2023-10-08T17:43:10;26.80;62.80
47805;DHT22;33568;45.286;9.900;2023-10-08T17:45:37;26.70;63.10
47805;DHT22;33568;45.286;9.900;2023-10-08T17:48:08;26.60;63.30
47805;DHT22;33568;45.286;9.900;2023-10-08T17:50:35;26.60;63.70
47805;DHT22;33568;45.286;9.900;2023-10-08T17:53:05;26.50;64.00
47805;DHT22;33568;45.286;9.900;2023-10-08T17:55:51;26.50;64.30
47805;DHT22;33568;45.286;9.900;2023-10-08T17:58:20;26.40;64.50
47805;DHT22;33568;45.286;9.900;2023-10-08T18:01:10;26.30;64.80
47805;DHT22;33568;45.286;9.900;2023-10-08T18:03:43;26.30;65.30
47805;DHT22;33568;45.286;9.900;2023-10-08T18:06:12;26.30;65.70
47805;DHT22;33568;45.286;9.900;2023-10-08T18:08:44;26.20;65.90
47805;DHT22;33568;45.286;9.900;2023-10-08T18:11:14;26.20;66.10
47805;DHT22;33568;45.286;9.900;2023-10-08T18:13:58;26.20;66.30